createdAt,value
2022-11-15T00:00:51.054Z,13.82
2022-11-15T00:03:18.165Z,13.82
2022-11-15T00:05:45.273Z,13.81
2022-11-15T00:08:12.458Z,13.80
2022-11-15T00:10:39.600Z,13.81
2022-11-15T00:13:06.851Z,13.80
2022-11-15T00:15:33.905Z,13.81
2022-11-15T00:18:00.986Z,13.79
2022-11-15T00:20:28.041Z,13.80
2022-11-15T00:22:55.093Z,13.82
2022-11-15T00:25:22.181Z,13.81
2022-11-15T00:27:49.254Z,13.81
2022-11-15T00:30:16.360Z,13.82
2022-11-15T00:32:43.413Z,13.80
2022-11-15T00:35:10.483Z,13.79
2022-11-15T00:37:37.609Z,13.80
2022-11-15T00:40:04.684Z,13.81
2022-11-15T00:42:31.753Z,13.79
2022-11-15T00:44:58.826Z,13.80
2022-11-15T00:47:25.905Z,13.79
2022-11-15T00:49:52.975Z,13.79
2022-11-15T00:52:20.029Z,13.79
2022-11-15T00:54:47.103Z,13.78
2022-11-15T00:57:14.176Z,13.79
2022-11-15T00:59:41.235Z,13.78
2022-11-15T01:02:08.305Z,13.78
2022-11-15T01:04:35.376Z,13.77
2022-11-15T01:07:02.485Z,13.76
2022-11-15T01:09:29.599Z,13.77
2022-11-15T01:11:56.659Z,13.77
2022-11-15T01:14:25.510Z,13.78
2022-11-15T01:16:52.954Z,13.77
2022-11-15T01:19:20.009Z,13.77
2022-11-15T01:21:47.134Z,13.76
2022-11-15T01:24:14.190Z,13.74
2022-11-15T01:26:41.294Z,13.77
2022-11-15T01:29:08.406Z,13.76
2022-11-15T01:31:35.493Z,13.76
2022-11-15T01:34:02.557Z,13.76
2022-11-15T01:36:29.644Z,13.74
2022-11-15T01:38:56.726Z,13.75
2022-11-15T01:41:23.785Z,13.74
2022-11-15T01:43:50.881Z,13.74
2022-11-15T01:46:17.943Z,13.73
2022-11-15T01:48:45.007Z,13.73
2022-11-15T01:51:12.087Z,13.73
2022-11-15T01:53:39.137Z,13.75
2022-11-15T01:56:06.224Z,13.73
2022-11-15T01:58:33.368Z,13.75
2022-11-15T02:01:00.493Z,13.72
2022-11-15T02:03:27.732Z,13.72
2022-11-15T02:05:54.899Z,13.70
2022-11-15T02:08:22.029Z,13.73
2022-11-15T02:10:49.177Z,13.73
2022-11-15T02:13:16.239Z,13.71
2022-11-15T02:15:43.337Z,13.72
2022-11-15T02:18:11.673Z,13.70
2022-11-15T02:20:38.737Z,13.72
2022-11-15T02:23:05.798Z,13.72
2022-11-15T02:25:32.865Z,13.72
2022-11-15T02:27:59.927Z,13.72
2022-11-15T02:30:27.031Z,13.71
2022-11-15T02:32:54.148Z,13.71
2022-11-15T02:35:21.206Z,13.72
2022-11-15T02:37:48.288Z,13.71
2022-11-15T02:40:15.400Z,13.71
2022-11-15T02:43:04.442Z,13.69
2022-11-15T02:45:35.215Z,13.70
2022-11-15T02:48:02.278Z,13.71
2022-11-15T02:50:29.379Z,13.69
2022-11-15T02:52:56.467Z,13.69
2022-11-15T02:55:23.533Z,13.68
2022-11-15T02:57:50.609Z,13.70
2022-11-15T03:00:17.687Z,13.69
2022-11-15T03:02:44.821Z,13.68
2022-11-15T03:05:11.903Z,13.67
2022-11-15T03:07:39.018Z,13.66
2022-11-15T03:10:06.111Z,13.66
2022-11-15T03:12:33.182Z,13.67
2022-11-15T03:15:00.247Z,13.67
2022-11-15T03:17:27.349Z,13.67
2022-11-15T03:19:54.700Z,13.67
2022-11-15T03:22:21.770Z,13.66
2022-11-15T03:24:49.014Z,13.67
2022-11-15T03:27:16.110Z,13.68
2022-11-15T03:29:43.194Z,13.67
2022-11-15T03:32:10.276Z,13.66
2022-11-15T03:34:37.335Z,13.66
2022-11-15T03:37:04.420Z,13.65
2022-11-15T03:39:31.539Z,13.67
2022-11-15T03:41:58.621Z,13.64
2022-11-15T03:44:25.697Z,13.66
2022-11-15T03:46:52.765Z,13.66
2022-11-15T03:49:19.900Z,13.64
2022-11-15T03:51:46.961Z,13.63
2022-11-15T03:54:14.067Z,13.62
2022-11-15T03:56:41.135Z,13.62
2022-11-15T03:59:08.203Z,13.64
2022-11-15T04:01:35.322Z,13.66
2022-11-15T04:04:02.431Z,13.66
2022-11-15T04:06:29.582Z,13.66
2022-11-15T04:08:56.650Z,13.63
2022-11-15T04:11:23.721Z,13.64
2022-11-15T04:13:50.868Z,13.63
2022-11-15T04:16:17.929Z,13.61
2022-11-15T04:18:44.989Z,13.61
2022-11-15T04:21:30.806Z,13.62
2022-11-15T04:24:13.303Z,13.60
2022-11-15T04:26:40.519Z,13.58
2022-11-15T04:29:26.156Z,13.56
2022-11-15T04:31:53.214Z,13.58
2022-11-15T04:34:20.291Z,13.59
2022-11-15T04:37:06.178Z,13.60
2022-11-15T04:39:33.242Z,13.58
2022-11-15T04:42:00.322Z,13.58
2022-11-15T04:44:27.396Z,13.59
2022-11-15T04:46:54.490Z,13.56
2022-11-15T04:49:21.547Z,13.57
2022-11-15T04:51:49.011Z,13.58
2022-11-15T04:54:16.134Z,13.57
2022-11-15T04:56:43.206Z,13.57
2022-11-15T04:59:10.298Z,13.59
2022-11-15T05:01:41.940Z,13.58
2022-11-15T05:04:21.053Z,13.58
2022-11-15T05:06:48.186Z,13.56
2022-11-15T05:09:15.646Z,13.55
2022-11-15T05:11:42.710Z,13.56
2022-11-15T05:14:09.819Z,13.57
2022-11-15T05:16:36.926Z,13.56
2022-11-15T05:19:04.214Z,13.54
2022-11-15T05:21:31.374Z,13.57
2022-11-15T05:23:58.453Z,13.53
2022-11-15T05:26:25.532Z,13.52
2022-11-15T05:28:52.609Z,13.53
2022-11-15T05:31:19.674Z,13.54
2022-11-15T05:33:46.807Z,13.54
2022-11-15T05:36:13.878Z,13.53
2022-11-15T05:38:40.940Z,13.56
2022-11-15T05:41:08.013Z,13.54
2022-11-15T05:43:35.099Z,13.52
2022-11-15T05:46:02.171Z,13.52
2022-11-15T05:48:29.247Z,13.52
2022-11-15T05:50:56.306Z,13.51
2022-11-15T05:53:23.377Z,13.52
2022-11-15T05:55:50.481Z,13.52
2022-11-15T05:58:17.556Z,13.52
2022-11-15T06:00:44.638Z,13.51
2022-11-15T06:03:11.765Z,13.53
2022-11-15T06:05:38.848Z,13.51
2022-11-15T06:08:05.978Z,13.51
2022-11-15T06:10:33.078Z,13.51
2022-11-15T06:13:00.242Z,13.52
2022-11-15T06:15:27.315Z,13.52
2022-11-15T06:17:58.288Z,13.53
2022-11-15T06:20:25.355Z,13.53
2022-11-15T06:22:52.458Z,13.52
2022-11-15T06:25:19.514Z,13.52
2022-11-15T06:27:46.577Z,13.51
2022-11-15T06:30:13.651Z,13.52
2022-11-15T06:32:40.720Z,13.52
2022-11-15T06:35:07.770Z,13.51
2022-11-15T06:37:34.841Z,13.52
2022-11-15T06:40:01.901Z,13.51
2022-11-15T06:42:29.015Z,13.51
2022-11-15T06:44:56.292Z,13.52
2022-11-15T06:47:23.363Z,13.52
2022-11-15T06:49:50.431Z,13.53
2022-11-15T06:52:19.505Z,13.52
2022-11-15T06:54:46.565Z,13.51
2022-11-15T06:57:13.701Z,13.49
2022-11-15T06:59:41.017Z,13.50
2022-11-15T07:02:08.123Z,13.51
2022-11-15T07:04:35.786Z,13.49
2022-11-15T07:07:03.138Z,13.51
2022-11-15T07:09:30.228Z,13.50
2022-11-15T07:11:57.281Z,13.50
2022-11-15T07:14:24.355Z,13.50
2022-11-15T07:16:51.434Z,13.50
2022-11-15T07:19:18.713Z,13.50
2022-11-15T07:21:45.800Z,13.49
2022-11-15T07:24:12.884Z,13.49
2022-11-15T07:26:39.951Z,13.50
2022-11-15T07:29:07.022Z,13.50
2022-11-15T07:31:34.251Z,13.51
2022-11-15T07:34:01.726Z,13.50
2022-11-15T07:36:30.582Z,13.51
2022-11-15T07:38:57.644Z,13.51
2022-11-15T07:41:24.721Z,13.52
2022-11-15T07:43:51.792Z,13.53
2022-11-15T07:46:18.906Z,13.52
2022-11-15T07:48:46.027Z,13.51
2022-11-15T07:51:14.270Z,13.51
2022-11-15T07:53:41.623Z,13.52
2022-11-15T07:56:08.750Z,13.51
2022-11-15T07:58:35.940Z,13.53
2022-11-15T08:01:03.117Z,13.54
2022-11-15T08:03:30.666Z,13.53
2022-11-15T08:05:57.949Z,13.57
2022-11-15T08:08:25.114Z,13.54
2022-11-15T08:10:52.243Z,13.55
2022-11-15T08:13:19.430Z,13.54
2022-11-15T08:15:46.529Z,13.55
2022-11-15T08:18:13.680Z,13.54
2022-11-15T08:20:40.752Z,13.54
2022-11-15T08:23:07.814Z,13.53
2022-11-15T08:25:34.938Z,13.56
2022-11-15T08:28:02.139Z,13.62
2022-11-15T08:30:29.417Z,13.60
2022-11-15T08:32:56.508Z,13.58
2022-11-15T08:35:28.656Z,13.57
2022-11-15T08:37:56.198Z,13.56
2022-11-15T08:40:23.829Z,13.57
2022-11-15T08:42:50.934Z,13.55
2022-11-15T08:45:18.012Z,13.58
2022-11-15T08:47:47.423Z,13.60
2022-11-15T08:50:18.266Z,13.59
2022-11-15T08:52:45.402Z,13.59
2022-11-15T08:55:12.490Z,13.61
2022-11-15T08:57:39.559Z,13.60
2022-11-15T09:00:06.637Z,13.63
2022-11-15T09:02:33.725Z,13.62
2022-11-15T09:05:00.933Z,13.62
2022-11-15T09:07:30.904Z,13.63
2022-11-15T09:09:58.104Z,13.60
2022-11-15T09:12:25.191Z,13.62
2022-11-15T09:14:52.304Z,13.64
2022-11-15T09:17:24.483Z,13.62
2022-11-15T09:19:52.198Z,13.63
2022-11-15T09:22:19.311Z,13.63
2022-11-15T09:24:46.389Z,13.65
2022-11-15T09:27:14.260Z,13.66
2022-11-15T09:29:41.394Z,13.66
2022-11-15T09:32:08.489Z,13.66
2022-11-15T09:34:35.658Z,13.67
2022-11-15T09:37:02.744Z,13.68
2022-11-15T09:39:29.854Z,13.68
2022-11-15T09:41:57.034Z,13.68
2022-11-15T09:44:25.503Z,13.68
2022-11-15T09:46:52.894Z,13.68
2022-11-15T09:49:19.990Z,13.68
2022-11-15T09:51:51.008Z,13.71
2022-11-15T09:54:51.128Z,13.72
2022-11-15T09:57:05.234Z,13.72
2022-11-15T09:59:32.538Z,13.73
2022-11-15T10:01:59.638Z,13.75
2022-11-15T10:04:26.705Z,13.75
2022-11-15T10:06:53.817Z,13.76
2022-11-15T10:09:23.758Z,13.76
2022-11-15T10:11:51.040Z,13.78
2022-11-15T10:14:18.110Z,13.81
2022-11-15T10:16:45.203Z,13.80
2022-11-15T10:19:12.351Z,13.80
2022-11-15T10:21:39.455Z,13.84
2022-11-15T10:24:06.551Z,13.85
2022-11-15T10:26:33.683Z,13.84
2022-11-15T10:29:00.749Z,13.84
2022-11-15T10:31:28.548Z,13.83
2022-11-15T10:33:55.625Z,13.84
2022-11-15T10:36:23.175Z,13.85
2022-11-15T10:38:50.366Z,13.88
2022-11-15T10:41:17.441Z,13.84
2022-11-15T10:43:44.538Z,13.86
2022-11-15T10:46:31.804Z,13.85
2022-11-15T10:48:58.760Z,13.87
2022-11-15T10:51:29.120Z,13.89
2022-11-15T10:53:56.207Z,13.85
2022-11-15T10:56:23.350Z,13.88
2022-11-15T10:58:50.422Z,13.89
2022-11-15T11:01:17.675Z,13.88
2022-11-15T11:03:44.850Z,13.88
2022-11-15T11:06:12.012Z,13.89
2022-11-15T11:08:39.088Z,13.91
2022-11-15T11:11:06.197Z,13.90
2022-11-15T11:13:33.322Z,13.92
2022-11-15T11:16:00.440Z,13.90
2022-11-15T11:18:28.423Z,13.91
2022-11-15T11:20:55.498Z,13.91
2022-11-15T11:23:22.833Z,13.88
2022-11-15T11:25:49.891Z,13.92
2022-11-15T11:28:17.009Z,13.92
2022-11-15T11:30:44.082Z,13.93
2022-11-15T11:33:11.149Z,13.94
2022-11-15T11:35:38.236Z,13.94
2022-11-15T11:38:05.761Z,13.96
2022-11-15T11:40:33.087Z,13.96
2022-11-15T11:43:00.849Z,13.96
2022-11-15T11:45:27.936Z,13.96
2022-11-15T11:47:55.015Z,13.96
2022-11-15T11:50:22.127Z,13.99
2022-11-15T11:52:49.193Z,13.99
2022-11-15T11:55:16.520Z,13.99
2022-11-15T11:57:43.788Z,14.00
2022-11-15T12:00:10.849Z,13.99
2022-11-15T12:02:38.038Z,14.00
2022-11-15T12:05:05.226Z,14.01
2022-11-15T12:07:32.455Z,14.00
2022-11-15T12:09:59.908Z,14.02
2022-11-15T12:12:26.969Z,14.03
2022-11-15T12:14:54.145Z,14.04
2022-11-15T12:17:21.475Z,14.03
2022-11-15T12:19:48.588Z,14.05
2022-11-15T12:22:15.662Z,14.05
2022-11-15T12:24:42.843Z,14.04
2022-11-15T12:27:09.927Z,14.04
2022-11-15T12:29:37.111Z,14.06
2022-11-15T12:32:06.001Z,14.05
2022-11-15T12:34:33.067Z,14.06
2022-11-15T12:37:02.732Z,14.06
2022-11-15T12:39:29.791Z,14.06
2022-11-15T12:41:56.888Z,14.04
2022-11-15T12:44:23.965Z,14.07
2022-11-15T12:46:51.026Z,14.07
2022-11-15T12:49:18.090Z,14.04
2022-11-15T12:51:45.166Z,14.06
2022-11-15T12:54:12.234Z,14.06
2022-11-15T12:56:41.258Z,14.06
2022-11-15T12:59:08.325Z,14.07
2022-11-15T13:01:36.272Z,14.06
2022-11-15T13:04:03.679Z,14.08
2022-11-15T13:06:30.996Z,14.08
2022-11-15T13:08:58.083Z,14.08
2022-11-15T13:11:25.186Z,14.08
2022-11-15T13:13:52.281Z,14.08
2022-11-15T13:16:19.363Z,14.12
2022-11-15T13:18:46.478Z,14.13
2022-11-15T13:21:33.514Z,14.11
2022-11-15T13:24:00.604Z,14.11
2022-11-15T13:26:27.690Z,14.11
2022-11-15T13:28:56.679Z,14.11
2022-11-15T13:31:23.848Z,14.12
2022-11-15T13:33:50.968Z,14.11
2022-11-15T13:36:18.042Z,14.13
2022-11-15T13:38:45.161Z,14.13
2022-11-15T13:41:12.257Z,14.11
2022-11-15T13:43:39.660Z,14.13
2022-11-15T13:46:06.733Z,14.15
2022-11-15T13:48:34.973Z,14.15
2022-11-15T13:51:02.134Z,14.18
2022-11-15T13:53:29.233Z,14.16
2022-11-15T13:55:56.365Z,14.13
2022-11-15T13:58:24.341Z,14.14
2022-11-15T14:00:54.372Z,14.14
2022-11-15T14:03:21.514Z,14.17
2022-11-15T14:05:48.668Z,14.18
2022-11-15T14:08:15.731Z,14.19
2022-11-15T14:10:42.840Z,14.19
2022-11-15T14:13:09.908Z,14.21
2022-11-15T14:15:37.019Z,14.24
2022-11-15T14:18:04.099Z,14.26
2022-11-15T14:20:31.883Z,14.24
2022-11-15T14:22:59.006Z,14.21
2022-11-15T14:25:26.281Z,14.23
2022-11-15T14:27:53.431Z,14.23
2022-11-15T14:30:20.578Z,14.22
2022-11-15T14:32:47.707Z,14.22
2022-11-15T14:35:14.867Z,14.20
2022-11-15T14:37:41.922Z,14.22
2022-11-15T14:40:10.769Z,14.19
2022-11-15T14:42:37.820Z,14.20
2022-11-15T14:45:04.907Z,14.22
2022-11-15T14:47:32.019Z,14.21
2022-11-15T14:49:59.109Z,14.20
2022-11-15T14:52:31.838Z,14.19
2022-11-15T14:55:01.083Z,14.22
2022-11-15T14:57:28.157Z,14.22
2022-11-15T14:59:55.233Z,14.23
2022-11-15T15:02:22.359Z,14.25
2022-11-15T15:04:49.465Z,14.24
2022-11-15T15:07:16.695Z,14.24
2022-11-15T15:09:43.882Z,14.24
2022-11-15T15:12:10.951Z,14.23
2022-11-15T15:14:38.016Z,14.22
2022-11-15T15:17:05.835Z,14.24
2022-11-15T15:19:33.127Z,14.23
2022-11-15T15:22:00.262Z,14.24
2022-11-15T15:24:27.314Z,14.24
2022-11-15T15:26:54.393Z,14.26
2022-11-15T15:29:21.456Z,14.26
2022-11-15T15:31:48.540Z,14.25
2022-11-15T15:34:16.981Z,14.25
2022-11-15T15:36:44.242Z,14.26
2022-11-15T15:39:12.183Z,14.25
2022-11-15T15:41:39.283Z,14.26
2022-11-15T15:44:06.338Z,14.24
2022-11-15T15:46:33.484Z,14.23
2022-11-15T15:49:00.600Z,14.20
2022-11-15T15:51:27.712Z,14.17
2022-11-15T15:53:58.146Z,14.22
2022-11-15T15:56:25.473Z,14.18
2022-11-15T15:58:53.569Z,14.13
2022-11-15T16:01:20.821Z,14.20
2022-11-15T16:03:47.986Z,14.20
2022-11-15T16:06:15.446Z,14.18
2022-11-15T16:09:08.356Z,14.25
2022-11-15T16:11:29.566Z,14.24
2022-11-15T16:13:56.639Z,14.26
2022-11-15T16:16:23.789Z,14.23
2022-11-15T16:18:51.351Z,14.24
2022-11-15T16:21:18.417Z,14.26
2022-11-15T16:23:45.512Z,14.25
2022-11-15T16:26:12.599Z,14.24
2022-11-15T16:28:39.722Z,14.22
2022-11-15T16:31:06.778Z,14.25
2022-11-15T16:33:34.391Z,14.24
2022-11-15T16:36:01.681Z,14.26
2022-11-15T16:38:28.804Z,14.32
2022-11-15T16:40:55.968Z,14.33
2022-11-15T16:43:23.095Z,14.38
2022-11-15T16:45:50.156Z,14.32
2022-11-15T16:48:17.308Z,14.27
2022-11-15T16:50:44.369Z,14.24
2022-11-15T16:53:11.449Z,14.24
2022-11-15T16:55:38.541Z,14.31
2022-11-15T16:58:05.619Z,14.32
2022-11-15T17:00:32.721Z,14.31
2022-11-15T17:02:59.919Z,14.31
2022-11-15T17:05:30.059Z,14.28
2022-11-15T17:07:57.126Z,14.31
2022-11-15T17:10:24.261Z,14.33
2022-11-15T17:12:51.408Z,14.34
2022-11-15T17:15:18.507Z,14.33
2022-11-15T17:17:45.644Z,14.29
2022-11-15T17:20:12.713Z,14.33
2022-11-15T17:22:39.793Z,14.34
2022-11-15T17:25:07.163Z,14.34
2022-11-15T17:27:34.380Z,14.36
2022-11-15T17:30:01.471Z,14.33
2022-11-15T17:32:28.570Z,14.39
2022-11-15T17:34:55.629Z,14.38
2022-11-15T17:37:22.707Z,14.38
2022-11-15T17:39:49.816Z,14.33
2022-11-15T17:42:16.922Z,14.28
2022-11-15T17:44:44.259Z,14.32
2022-11-15T17:47:11.537Z,14.40
2022-11-15T17:49:40.806Z,14.47
2022-11-15T17:52:08.119Z,14.55
2022-11-15T17:54:35.901Z,14.61
2022-11-15T17:57:02.984Z,14.53
2022-11-15T17:59:30.096Z,14.42
2022-11-15T18:01:57.190Z,14.39
2022-11-15T18:04:28.312Z,14.36
2022-11-15T18:06:56.613Z,14.49
2022-11-15T18:09:24.824Z,14.48
2022-11-15T18:11:53.563Z,14.53
2022-11-15T18:14:20.714Z,14.58
2022-11-15T18:16:47.857Z,14.61
2022-11-15T18:19:15.231Z,14.62
2022-11-15T18:21:57.477Z,14.63
2022-11-15T18:24:24.699Z,14.61
2022-11-15T18:26:51.920Z,14.60
2022-11-15T18:29:19.809Z,14.62
2022-11-15T18:31:50.053Z,14.60
2022-11-15T18:34:17.666Z,14.63
2022-11-15T18:36:44.725Z,14.64
2022-11-15T18:39:16.454Z,14.67
2022-11-15T18:41:43.693Z,14.67
2022-11-15T18:44:10.807Z,14.60
2022-11-15T18:46:39.327Z,14.64
2022-11-15T18:49:07.700Z,14.62
2022-11-15T18:51:34.830Z,14.61
2022-11-15T18:54:01.933Z,14.62
2022-11-15T18:56:29.016Z,14.61
2022-11-15T18:58:56.432Z,14.59
2022-11-15T19:01:23.665Z,14.65
2022-11-15T19:03:50.796Z,14.53
2022-11-15T19:06:17.980Z,14.58
2022-11-15T19:08:45.194Z,14.58
2022-11-15T19:11:14.852Z,14.57
2022-11-15T19:13:42.031Z,14.52
2022-11-15T19:16:09.155Z,14.54
2022-11-15T19:18:36.269Z,14.56
2022-11-15T19:21:03.420Z,14.55
2022-11-15T19:23:30.755Z,14.49
2022-11-15T19:25:58.918Z,14.53
2022-11-15T19:28:26.046Z,14.48
2022-11-15T19:30:53.237Z,14.46
2022-11-15T19:33:26.512Z,14.45
2022-11-15T19:35:55.083Z,14.45
2022-11-15T19:38:22.187Z,14.44
2022-11-15T19:40:49.506Z,14.44
2022-11-15T19:43:16.716Z,14.43
2022-11-15T19:45:43.882Z,14.43
2022-11-15T19:48:11.169Z,14.44
2022-11-15T19:50:40.336Z,14.43
2022-11-15T19:53:07.450Z,14.41
2022-11-15T19:55:34.637Z,14.41
2022-11-15T19:58:01.960Z,14.44
2022-11-15T20:00:29.287Z,14.47
2022-11-15T20:02:56.395Z,14.63
2022-11-15T20:05:23.573Z,14.68
2022-11-15T20:07:50.750Z,14.67
2022-11-15T20:10:20.674Z,14.61
2022-11-15T20:12:48.101Z,14.54
2022-11-15T20:15:15.210Z,14.50
2022-11-15T20:17:42.482Z,14.47
2022-11-15T20:20:09.619Z,14.46
2022-11-15T20:22:36.776Z,14.49
2022-11-15T20:25:03.917Z,14.49
2022-11-15T20:27:31.098Z,14.51
2022-11-15T20:29:58.567Z,14.49
2022-11-15T20:32:25.844Z,14.49
2022-11-15T20:34:54.217Z,14.49
2022-11-15T20:37:21.602Z,14.50
2022-11-15T20:39:48.685Z,14.50
2022-11-15T20:42:15.813Z,14.51
2022-11-15T20:44:42.980Z,14.46
2022-11-15T20:47:10.104Z,14.49
2022-11-15T20:49:37.208Z,14.50
2022-11-15T20:52:04.422Z,14.52
2022-11-15T20:54:31.494Z,14.51
2022-11-15T20:56:58.582Z,14.59
2022-11-15T20:59:25.698Z,14.62
2022-11-15T21:01:53.004Z,14.65
2022-11-15T21:04:20.194Z,14.65
2022-11-15T21:06:48.817Z,14.67
2022-11-15T21:09:35.254Z,14.71
2022-11-15T21:12:11.305Z,14.71
2022-11-15T21:14:38.381Z,14.71
2022-11-15T21:17:05.478Z,14.63
2022-11-15T21:19:36.874Z,14.60
2022-11-15T21:22:04.215Z,14.60
2022-11-15T21:24:31.336Z,14.58
2022-11-15T21:26:58.465Z,14.52
2022-11-15T21:29:25.583Z,14.50
2022-11-15T21:31:53.460Z,14.48
2022-11-15T21:34:20.582Z,14.45
2022-11-15T21:36:47.698Z,14.47
2022-11-15T21:39:14.844Z,14.48
2022-11-15T21:41:42.128Z,14.46
2022-11-15T21:44:09.231Z,14.43
2022-11-15T21:46:37.336Z,14.44
2022-11-15T21:49:05.068Z,14.53
2022-11-15T21:51:32.141Z,14.53
2022-11-15T21:53:59.227Z,14.50
2022-11-15T21:56:26.319Z,14.51
2022-11-15T21:58:53.875Z,14.67
2022-11-15T22:01:39.781Z,14.81
2022-11-15T22:04:06.917Z,15.05
2022-11-15T22:06:34.081Z,15.16
2022-11-15T22:09:01.189Z,15.21
2022-11-15T22:11:28.471Z,15.30
2022-11-15T22:13:55.558Z,15.31
2022-11-15T22:16:22.623Z,15.37
2022-11-15T22:18:49.715Z,15.46
2022-11-15T22:21:16.870Z,15.43
2022-11-15T22:23:43.975Z,15.36
2022-11-15T22:26:11.190Z,15.36
2022-11-15T22:28:38.366Z,15.34
2022-11-15T22:31:05.501Z,15.37
2022-11-15T22:33:32.638Z,15.32
2022-11-15T22:35:59.723Z,15.36
2022-11-15T22:38:26.862Z,15.35
2022-11-15T22:40:53.977Z,15.37
2022-11-15T22:43:21.081Z,15.36
2022-11-15T22:45:48.934Z,15.38
2022-11-15T22:48:16.019Z,15.39
2022-11-15T22:50:43.094Z,15.41
2022-11-15T22:53:10.195Z,15.42
2022-11-15T22:55:37.297Z,15.42
2022-11-15T22:58:04.469Z,15.49
2022-11-15T23:00:31.558Z,15.43
2022-11-15T23:02:58.779Z,15.46
2022-11-15T23:05:25.894Z,15.44
2022-11-15T23:07:52.982Z,15.41
2022-11-15T23:10:39.114Z,15.38
2022-11-15T23:13:18.309Z,15.43
2022-11-15T23:16:04.235Z,15.44
2022-11-15T23:18:31.744Z,15.43
2022-11-15T23:20:59.014Z,15.42
2022-11-15T23:23:26.192Z,15.43
2022-11-15T23:25:53.269Z,15.40
2022-11-15T23:28:20.385Z,15.40
2022-11-15T23:31:06.323Z,15.39
2022-11-15T23:33:52.023Z,15.40
2022-11-15T23:36:19.109Z,15.42
2022-11-15T23:38:46.198Z,15.37
2022-11-15T23:41:13.420Z,15.39
2022-11-15T23:43:40.537Z,15.44
2022-11-15T23:46:07.615Z,15.48
2022-11-15T23:48:34.956Z,15.54
2022-11-15T23:51:02.476Z,15.58
2022-11-15T23:53:29.566Z,15.62
2022-11-15T23:55:56.662Z,15.68
2022-11-15T23:58:23.766Z,15.65
